San Salvador, El Salvador
Current Conditions -  °F | °C
As of 10:50 AM on Thursday 27 Nov 2014 (Local Time) from MSSS Reporting Station
Clear Clear  
Wind Chill: 77°   Ceiling: Unl
Heat Index: 79°   Visibility: 6mi
Dew Point: 63°   Wind: 21mph
Humidity: 61%   Direction: 340°NNW
Pressure: 30.03"   Gusts: NA
Location:  13.77°N, 89.16°W
Report Text: MSSS 271650Z 34018KT CAVOK 25/17 Q1017 A3006
Loading
Personal Weather Stations






























Interactive Weather Map New forecast layout! Learn more

10-Day Weather Forecast

Advertisements
Track Severe Weather on mobile